Time;durP1;ratioP1;P1;durP2;ratioP2;P2;SDS_P1;SDS_P2;PMS_P1;PMS_P2;Temp;Humidity;BMP_temperature;BMP_pressure;BME280_temperature;BME280_humidity;BME280_pressure;Samples;Min_cycle;Max_cycle;Signal;HPM_P1;HPM_P2
2022/06/13 00:01:35;;;;;;;3.93;2.87;;;17.70;99.90;;;;;;5074383;28;20462;-69
2022/06/13 00:04:04;;;;;;;2.87;2.67;;;17.70;99.90;;;;;;5074014;28;20486;-68
2022/06/13 00:06:31;;;;;;;4.27;3.20;;;17.70;99.90;;;;;;5074200;28;20487;-69
2022/06/13 00:08:58;;;;;;;3.67;2.90;;;17.60;99.90;;;;;;5073300;28;20485;-70
2022/06/13 00:11:26;;;;;;;3.67;3.00;;;17.60;99.90;;;;;;5074130;28;20458;-70
2022/06/13 00:13:57;;;;;;;3.17;2.77;;;17.50;99.90;;;;;;5073877;28;20485;-69
2022/06/13 00:16:25;;;;;;;4.00;3.47;;;17.50;99.90;;;;;;5073851;28;20482;-69
2022/06/13 00:18:52;;;;;;;3.40;3.00;;;17.50;99.90;;;;;;5073228;28;20455;-68
2022/06/13 00:21:21;;;;;;;4.30;2.80;;;17.40;99.90;;;;;;5073957;28;20462;-69
2022/06/13 00:23:49;;;;;;;2.63;2.40;;;17.40;99.90;;;;;;5073659;28;20541;-69
2022/06/13 00:26:16;;;;;;;4.10;3.20;;;17.30;99.90;;;;;;5073400;28;20876;-67
2022/06/13 00:28:44;;;;;;;4.63;3.93;;;17.20;99.90;;;;;;5073052;28;20462;-69
2022/06/13 00:31:11;;;;;;;3.70;3.40;;;17.10;99.90;;;;;;5073459;28;20470;-69
2022/06/13 00:33:37;;;;;;;4.03;3.60;;;17.00;99.90;;;;;;5073723;28;20469;-69
2022/06/13 00:36:05;;;;;;;4.80;3.50;;;17.00;99.90;;;;;;5073302;28;20486;-69
2022/06/13 00:38:32;;;;;;;5.30;3.80;;;16.90;99.90;;;;;;5072987;28;20466;-69
2022/06/13 00:40:59;;;;;;;4.93;3.90;;;16.90;99.90;;;;;;5073591;28;20462;-69
2022/06/13 00:43:25;;;;;;;3.40;3.13;;;16.90;99.90;;;;;;5073453;28;20465;-69
2022/06/13 00:45:53;;;;;;;4.20;3.20;;;17.00;99.90;;;;;;5073209;28;20862;-69
2022/06/13 00:48:27;;;;;;;4.30;3.87;;;17.00;99.90;;;;;;5071771;28;20459;-69
2022/06/13 00:50:58;;;;;;;4.93;3.20;;;17.10;99.90;;;;;;5073175;28;20945;-69
2022/06/13 00:53:28;;;;;;;3.30;3.00;;;17.10;99.90;;;;;;5073242;28;20463;-69
2022/06/13 00:55:58;;;;;;;5.67;3.97;;;17.10;99.90;;;;;;5072980;28;20459;-69
2022/06/13 00:58:26;;;;;;;6.80;3.40;;;17.20;99.90;;;;;;5072534;28;20462;-68
2022/06/13 01:00:57;;;;;;;4.03;3.40;;;17.10;99.90;;;;;;5073084;28;20458;-69
2022/06/13 01:03:26;;;;;;;4.13;3.20;;;17.10;99.90;;;;;;5073182;28;20458;-69
2022/06/13 01:05:57;;;;;;;4.27;3.17;;;17.10;99.90;;;;;;5072689;28;20489;-69
2022/06/13 01:08:26;;;;;;;6.53;3.50;;;17.00;99.90;;;;;;5072343;28;20462;-69
2022/06/13 01:14:37;;;;;;;5.63;3.80;;;17.00;99.90;;;;;;5036164;28;20454;-67
2022/06/13 01:17:27;;;;;;;5.43;4.07;;;17.00;99.90;;;;;;5072528;28;20478;-69
2022/06/13 01:20:26;;;;;;;4.40;3.33;;;17.00;99.90;;;;;;5072110;28;20454;-68
2022/06/13 01:23:31;;;;;;;5.40;3.50;;;17.00;99.90;;;;;;5069294;28;20473;-69
2022/06/13 01:26:28;;;;;;;5.37;3.40;;;17.10;99.90;;;;;;5041749;28;20905;-67
2022/06/13 01:29:32;;;;;;;4.70;3.70;;;17.10;99.90;;;;;;5072029;28;20463;-69
2022/06/13 01:32:09;;;;;;;3.57;3.27;;;17.10;99.90;;;;;;5072413;28;20462;-68
2022/06/13 01:34:41;;;;;;;4.20;3.13;;;17.10;99.90;;;;;;5072425;28;20455;-69
2022/06/13 01:37:19;;;;;;;4.47;3.30;;;17.10;99.90;;;;;;5072131;28;20502;-70
2022/06/13 01:39:59;;;;;;;3.60;3.30;;;17.10;99.90;;;;;;5071778;28;20462;-69
2022/06/13 01:42:38;;;;;;;4.27;3.70;;;17.10;99.90;;;;;;5072262;28;20468;-69
2022/06/13 01:45:12;;;;;;;5.57;3.83;;;17.10;99.90;;;;;;5072049;28;20493;-69
2022/06/13 01:47:46;;;;;;;4.10;3.70;;;17.10;99.90;;;;;;5072246;28;20564;-70
2022/06/13 01:50:30;;;;;;;3.90;3.47;;;17.10;99.90;;;;;;5071485;28;20457;-69
2022/06/13 01:53:04;;;;;;;3.80;3.23;;;17.10;99.90;;;;;;5072088;28;20838;-69
2022/06/13 01:55:40;;;;;;;4.33;3.47;;;17.00;99.90;;;;;;5072042;28;20455;-69
2022/06/13 01:58:11;;;;;;;4.13;3.47;;;17.00;99.90;;;;;;5071308;28;20844;-69
2022/06/13 02:00:40;;;;;;;3.20;3.00;;;17.00;99.90;;;;;;5071918;28;20492;-70
2022/06/13 02:03:17;;;;;;;4.13;3.40;;;17.00;99.90;;;;;;5071606;28;20462;-69
2022/06/13 02:05:49;;;;;;;4.10;3.10;;;17.00;99.90;;;;;;5071574;28;20486;-69
2022/06/13 02:08:19;;;;;;;4.23;3.57;;;17.00;99.90;;;;;;5071101;28;20457;-70
2022/06/13 02:10:51;;;;;;;4.10;3.73;;;17.00;99.90;;;;;;5071802;28;20486;-70
2022/06/13 02:13:24;;;;;;;6.50;3.50;;;17.00;99.90;;;;;;5071509;28;20474;-69
2022/06/13 02:15:55;;;;;;;4.47;3.60;;;17.00;99.90;;;;;;5071503;28;20459;-69
2022/06/13 02:18:27;;;;;;;3.13;2.83;;;17.00;99.90;;;;;;5071057;28;20461;-70
2022/06/13 02:20:58;;;;;;;4.30;3.53;;;17.00;99.90;;;;;;5071411;28;20458;-68
2022/06/13 02:23:31;;;;;;;4.13;3.40;;;16.90;99.90;;;;;;5071244;28;20465;-69
2022/06/13 02:26:02;;;;;;;4.47;3.50;;;16.90;99.90;;;;;;5071121;28;20493;-69
2022/06/13 02:28:35;;;;;;;4.53;3.10;;;16.90;99.90;;;;;;5070949;28;20459;-69
2022/06/13 02:31:07;;;;;;;4.53;3.30;;;16.90;99.90;;;;;;5071322;28;20475;-69
2022/06/13 02:33:41;;;;;;;3.50;3.20;;;17.00;99.90;;;;;;5071394;28;20466;-69
2022/06/13 02:36:12;;;;;;;5.80;3.17;;;17.00;99.90;;;;;;5071152;28;20486;-69
2022/06/13 02:38:46;;;;;;;3.70;3.40;;;17.00;99.90;;;;;;5070964;28;20510;-69
2022/06/13 02:41:21;;;;;;;3.97;3.10;;;17.00;99.90;;;;;;5071170;28;20459;-69
2022/06/13 02:43:53;;;;;;;5.03;3.27;;;17.00;99.90;;;;;;5071194;28;20462;-69
2022/06/13 02:46:27;;;;;;;3.60;3.20;;;17.00;99.90;;;;;;5071146;28;20493;-69
2022/06/13 02:48:58;;;;;;;4.50;2.90;;;17.00;99.90;;;;;;5070571;28;20462;-68
2022/06/13 02:51:33;;;;;;;3.43;2.97;;;17.00;99.90;;;;;;5071423;28;20458;-69
2022/06/13 02:54:05;;;;;;;3.80;3.50;;;17.00;99.90;;;;;;5070927;28;20450;-69
2022/06/13 02:56:37;;;;;;;5.47;3.10;;;17.00;99.90;;;;;;5071253;28;20518;-70
2022/06/13 02:59:16;;;;;;;3.53;3.23;;;17.00;99.90;;;;;;5070629;28;20462;-69
2022/06/13 03:01:47;;;;;;;3.70;3.30;;;16.90;99.90;;;;;;5071407;28;20465;-68
2022/06/13 03:04:21;;;;;;;4.73;2.90;;;16.90;99.90;;;;;;5071397;28;20454;-69
2022/06/13 03:07:03;;;;;;;3.40;3.10;;;16.80;99.90;;;;;;5070897;28;20480;-69
2022/06/13 03:09:33;;;;;;;5.07;2.80;;;16.80;99.90;;;;;;5070382;28;20462;-70
2022/06/13 03:12:05;;;;;;;3.90;3.10;;;16.80;99.90;;;;;;5070115;28;20490;-69
2022/06/13 03:14:50;;;;;;;3.03;2.80;;;16.70;99.90;;;;;;5071175;28;20458;-70
2022/06/13 03:17:26;;;;;;;3.30;3.10;;;16.70;99.90;;;;;;5070719;28;20473;-69
2022/06/13 03:19:57;;;;;;;5.60;3.40;;;16.60;99.90;;;;;;5070024;28;20941;-70
2022/06/13 03:22:30;;;;;;;4.03;3.13;;;16.60;99.90;;;;;;5070489;28;20954;-70
2022/06/13 03:25:07;;;;;;;5.13;3.70;;;16.50;99.90;;;;;;5070150;28;21040;-68
2022/06/13 03:27:38;;;;;;;4.20;3.03;;;16.50;99.90;;;;;;5070621;28;20844;-70
2022/06/13 03:30:11;;;;;;;5.20;3.20;;;16.40;99.90;;;;;;5069911;28;20462;-66
2022/06/13 03:32:44;;;;;;;3.50;3.03;;;16.40;99.90;;;;;;5063212;28;20483;-68
2022/06/13 03:35:16;;;;;;;4.00;3.20;;;16.40;99.90;;;;;;5059837;28;20456;-68
2022/06/13 03:37:47;;;;;;;3.60;2.73;;;16.30;99.90;;;;;;5058692;28;20472;-68
2022/06/13 03:40:19;;;;;;;4.40;3.23;;;16.30;99.90;;;;;;5057677;28;20455;-68
2022/06/13 03:42:51;;;;;;;5.40;3.10;;;16.20;99.90;;;;;;5059153;28;20493;-66
2022/06/13 03:45:25;;;;;;;5.37;4.00;;;16.10;99.90;;;;;;5060205;28;20857;-68
2022/06/13 03:47:59;;;;;;;6.55;3.40;;;16.10;99.90;;;;;;5059132;28;20490;-67
2022/06/13 03:50:32;;;;;;;3.90;2.90;;;16.00;99.90;;;;;;5057488;28;20199;-67
2022/06/13 03:53:07;;;;;;;5.33;3.37;;;16.00;99.90;;;;;;5049570;28;20455;-67
2022/06/13 03:55:39;;;;;;;4.60;2.90;;;16.00;99.90;;;;;;5049718;28;20455;-67
2022/06/13 03:58:10;;;;;;;4.83;3.20;;;15.90;99.90;;;;;;5058110;28;20808;-67
2022/06/13 04:00:42;;;;;;;6.00;3.00;;;15.90;99.90;;;;;;5058026;28;20468;-68
2022/06/13 04:03:10;;;;;;;5.93;3.30;;;15.90;99.90;;;;;;5058284;28;20814;-65
2022/06/13 04:05:42;;;;;;;4.73;3.10;;;15.80;99.90;;;;;;5059890;28;20478;-67
2022/06/13 04:08:11;;;;;;;3.23;2.80;;;15.80;99.90;;;;;;5058831;28;20460;-67
2022/06/13 04:10:51;;;;;;;7.27;3.07;;;15.80;99.90;;;;;;5057926;28;20816;-67
2022/06/13 04:13:41;;;;;;;6.20;3.20;;;15.80;99.90;;;;;;5057792;28;20529;-68
2022/06/13 04:16:27;;;;;;;6.13;3.57;;;15.80;99.90;;;;;;5058880;28;20467;-67
2022/06/13 04:19:12;;;;;;;7.53;3.77;;;15.70;99.90;;;;;;5059265;28;20462;-69
2022/06/13 04:21:52;;;;;;;6.20;3.50;;;15.70;99.90;;;;;;5057833;28;20954;-69
2022/06/13 04:24:29;;;;;;;4.57;3.10;;;15.70;99.90;;;;;;5059333;28;20958;-69
2022/06/13 04:27:04;;;;;;;4.80;3.20;;;15.70;99.90;;;;;;5066730;28;20489;-68
2022/06/13 04:29:40;;;;;;;5.00;3.37;;;15.60;99.90;;;;;;5073149;28;20462;-69
2022/06/13 04:32:12;;;;;;;4.13;3.23;;;15.60;99.90;;;;;;5073667;28;20885;-69
2022/06/13 04:34:45;;;;;;;6.33;2.90;;;15.50;99.90;;;;;;5073869;28;20553;-69
2022/06/13 04:37:14;;;;;;;5.33;3.00;;;15.50;99.90;;;;;;5073432;28;20478;-67
2022/06/13 04:39:43;;;;;;;6.93;3.20;;;15.50;99.90;;;;;;5073026;28;20466;-69
2022/06/13 04:42:12;;;;;;;5.77;3.13;;;15.40;99.90;;;;;;5073387;28;20485;-68
2022/06/13 04:44:41;;;;;;;4.67;3.50;;;15.40;99.90;;;;;;5073558;28;20834;-69
2022/06/13 04:47:12;;;;;;;6.17;3.60;;;15.40;99.90;;;;;;5073067;28;20478;-67
2022/06/13 04:49:45;;;;;;;9.83;3.43;;;15.40;99.90;;;;;;5073044;28;20833;-68
2022/06/13 04:52:16;;;;;;;4.57;3.30;;;15.50;99.90;;;;;;5073274;28;20841;-69
2022/06/13 04:54:47;;;;;;;5.57;3.33;;;15.50;99.90;;;;;;5073354;28;20459;-69
2022/06/13 04:57:17;;;;;;;3.07;2.70;;;15.50;99.90;;;;;;5073182;28;20504;-68
2022/06/13 04:59:45;;;;;;;3.53;3.10;;;15.60;99.90;;;;;;5072639;28;20520;-69
2022/06/13 05:02:15;;;;;;;4.50;3.10;;;15.60;99.90;;;;;;5072969;28;20466;-68
2022/06/13 05:04:42;;;;;;;6.33;3.20;;;15.60;99.90;;;;;;5073253;28;20609;-68
2022/06/13 05:07:14;;;;;;;7.63;3.87;;;15.50;99.90;;;;;;5073120;28;20498;-69
2022/06/13 05:09:44;;;;;;;6.17;3.37;;;15.50;99.90;;;;;;5072816;28;20799;-69
2022/06/13 05:12:16;;;;;;;9.20;3.67;;;15.50;99.90;;;;;;5072990;28;20462;-68
2022/06/13 05:14:50;;;;;;;5.20;3.00;;;15.50;99.90;;;;;;5072936;28;20454;-68
2022/06/13 05:17:54;;;;;;;4.83;3.30;;;15.50;99.90;;;;;;5073250;28;20484;-68
2022/06/13 05:23:05;;;;;;;7.90;3.60;;;15.60;99.90;;;;;;5227643;22;21000;-73
2022/06/13 05:25:40;;;;;;;5.17;3.33;;;15.50;99.90;;;;;;5072615;28;20479;-74
2022/06/13 05:28:08;;;;;;;6.63;3.30;;;15.60;99.90;;;;;;5052369;28;20842;-73
2022/06/13 05:30:35;;;;;;;5.60;4.40;;;15.60;99.90;;;;;;5052501;28;20545;-73
2022/06/13 05:33:02;;;;;;;8.00;4.10;;;15.70;99.90;;;;;;5053005;28;20471;-73
2022/06/13 05:35:35;;;;;;;6.17;3.80;;;15.70;99.90;;;;;;5052251;28;20879;-73
2022/06/13 05:38:05;;;;;;;4.40;3.10;;;15.80;99.90;;;;;;5044133;28;20538;-73
2022/06/13 05:40:32;;;;;;;5.93;3.40;;;15.90;99.90;;;;;;5032526;28;20842;-73
2022/06/13 05:42:59;;;;;;;7.67;3.70;;;15.90;99.90;;;;;;5032701;28;20651;-73
2022/06/13 05:45:26;;;;;;;7.73;3.20;;;15.90;99.90;;;;;;5032526;28;20467;-73
2022/06/13 05:47:54;;;;;;;8.17;3.90;;;15.90;99.90;;;;;;5032057;28;20480;-73
2022/06/13 05:50:23;;;;;;;6.23;3.57;;;15.90;99.90;;;;;;5032104;28;20464;-73
2022/06/13 05:52:50;;;;;;;4.80;3.23;;;15.90;99.90;;;;;;5032101;28;20471;-72
2022/06/13 05:55:18;;;;;;;5.30;4.30;;;15.90;99.90;;;;;;5032384;28;20463;-73
2022/06/13 05:57:45;;;;;;;6.50;3.60;;;15.90;99.90;;;;;;5031982;28;20979;-73
2022/06/13 06:00:17;;;;;;;6.20;3.47;;;15.90;99.90;;;;;;5031694;28;20479;-73
2022/06/13 06:02:44;;;;;;;4.40;3.40;;;15.90;99.90;;;;;;5037238;28;20474;-72
2022/06/13 06:05:10;;;;;;;7.00;3.40;;;15.90;99.90;;;;;;5042325;28;20468;-73
2022/06/13 06:07:38;;;;;;;5.73;3.23;;;15.90;99.90;;;;;;5040228;28;20479;-73
2022/06/13 06:10:06;;;;;;;6.47;3.70;;;15.90;99.90;;;;;;5035986;28;20484;-73
2022/06/13 06:12:34;;;;;;;4.97;3.53;;;15.90;99.90;;;;;;5031746;28;20465;-73
2022/06/13 06:15:00;;;;;;;5.97;3.40;;;15.90;99.90;;;;;;5031076;28;20835;-72
2022/06/13 06:17:27;;;;;;;5.93;3.30;;;15.90;99.90;;;;;;5031623;28;20477;-72
2022/06/13 06:19:54;;;;;;;5.13;3.13;;;16.00;99.90;;;;;;5031368;28;20840;-73
2022/06/13 06:22:21;;;;;;;7.77;3.47;;;16.00;99.90;;;;;;5031590;28;20472;-73
2022/06/13 06:24:47;;;;;;;6.80;3.20;;;16.00;99.90;;;;;;5031806;28;20868;-73
2022/06/13 06:27:16;;;;;;;6.97;3.20;;;16.10;99.90;;;;;;5031530;28;20489;-73
2022/06/13 06:29:44;;;;;;;4.70;2.80;;;16.10;99.90;;;;;;5030759;28;20460;-73
2022/06/13 06:32:11;;;;;;;5.90;3.20;;;16.20;99.90;;;;;;5031624;28;20467;-73
2022/06/13 06:34:38;;;;;;;4.80;3.23;;;16.30;99.90;;;;;;5031505;28;20522;-73
2022/06/13 06:37:04;;;;;;;7.90;2.80;;;16.40;99.90;;;;;;5031578;28;20984;-73
2022/06/13 06:39:31;;;;;;;5.40;3.73;;;16.40;99.90;;;;;;5030750;28;20465;-73
2022/06/13 06:41:58;;;;;;;6.93;3.00;;;16.50;99.90;;;;;;5031309;28;20463;-73
2022/06/13 06:44:25;;;;;;;4.53;2.77;;;16.50;99.90;;;;;;5031204;28;20839;-72
2022/06/13 06:46:53;;;;;;;7.47;3.33;;;16.60;99.90;;;;;;5030573;28;20492;-73
2022/06/13 06:49:20;;;;;;;6.73;3.80;;;16.60;99.90;;;;;;5038356;28;20463;-73
2022/06/13 06:51:47;;;;;;;4.77;2.90;;;16.70;99.90;;;;;;5047698;28;20467;-73
2022/06/13 06:59:57;;;;;;;4.50;3.20;;;17.00;99.90;;;;;;5049039;28;20521;-73
2022/06/13 07:02:28;;;;;;;5.70;2.90;;;17.10;99.90;;;;;;5050467;28;21027;-73
2022/06/13 07:04:59;;;;;;;7.87;2.93;;;17.20;99.90;;;;;;5050167;28;20957;-73
2022/06/13 07:07:26;;;;;;;8.10;3.33;;;17.20;99.90;;;;;;5049523;28;20491;-73
2022/06/13 07:09:53;;;;;;;10.07;3.20;;;17.20;99.90;;;;;;5049200;28;20458;-73
2022/06/13 07:12:20;;;;;;;6.13;3.27;;;17.30;99.90;;;;;;5049778;28;20839;-73
2022/06/13 07:14:47;;;;;;;5.10;3.03;;;17.30;99.90;;;;;;5049493;28;20459;-73
2022/06/13 07:17:14;;;;;;;3.73;2.70;;;17.50;99.90;;;;;;5049805;28;20471;-73
2022/06/13 07:19:44;;;;;;;7.13;3.17;;;17.60;99.90;;;;;;5049029;28;20467;-73
2022/06/13 07:22:14;;;;;;;4.87;3.93;;;17.70;99.90;;;;;;5049704;28;20471;-73
2022/06/13 07:24:41;;;;;;;6.13;3.43;;;17.80;99.90;;;;;;5049501;28;20484;-73
2022/06/13 07:27:07;;;;;;;5.83;3.27;;;17.90;99.90;;;;;;5049354;28;20518;-73
2022/06/13 07:29:34;;;;;;;5.40;2.83;;;17.90;99.90;;;;;;5048241;28;20963;-73
2022/06/13 07:32:06;;;;;;;9.13;3.73;;;18.00;99.90;;;;;;5049292;28;20462;-73
2022/06/13 07:34:35;;;;;;;4.03;2.80;;;18.10;99.90;;;;;;5049374;28;20466;-73
2022/06/13 07:37:05;;;;;;;6.33;3.50;;;18.10;99.90;;;;;;5049049;28;20483;-73
2022/06/13 07:39:32;;;;;;;4.70;3.00;;;18.10;99.90;;;;;;5048909;28;20464;-73
2022/06/13 07:41:58;;;;;;;3.90;2.87;;;18.20;99.90;;;;;;5049456;28;20770;-73
2022/06/13 07:44:29;;;;;;;5.50;3.00;;;18.20;99.90;;;;;;5049282;28;20836;-73
2022/06/13 07:46:55;;;;;;;4.53;2.70;;;18.20;99.90;;;;;;5048283;28;20491;-73
2022/06/13 07:49:23;;;;;;;6.07;2.90;;;18.30;99.90;;;;;;5049317;28;20455;-73
2022/06/13 07:51:50;;;;;;;6.30;3.00;;;18.40;99.90;;;;;;5050053;28;20459;-73
2022/06/13 07:54:18;;;;;;;9.00;3.17;;;18.50;99.90;;;;;;5049605;28;20463;-73
2022/06/13 07:56:46;;;;;;;5.53;2.90;;;18.50;99.90;;;;;;5049687;28;20482;-73
2022/06/13 07:59:15;;;;;;;6.40;3.30;;;18.50;99.90;;;;;;5051781;28;20469;-73
2022/06/13 08:01:42;;;;;;;5.37;2.80;;;18.60;99.90;;;;;;5053310;28;21039;-73
2022/06/13 08:04:09;;;;;;;7.00;3.10;;;18.70;99.90;;;;;;5053644;28;20459;-73
2022/06/13 08:06:38;;;;;;;7.13;3.00;;;18.70;99.90;;;;;;5053075;28;20505;-73
2022/06/13 08:09:05;;;;;;;6.20;2.43;;;18.90;99.90;;;;;;5052884;28;20516;-73
2022/06/13 08:11:36;;;;;;;4.50;2.80;;;19.00;99.90;;;;;;5053436;28;20550;-73
2022/06/13 08:14:06;;;;;;;4.80;2.57;;;19.00;99.90;;;;;;5048655;28;20459;-74
2022/06/13 08:16:34;;;;;;;3.40;2.90;;;19.10;99.90;;;;;;5052848;28;21107;-72
2022/06/13 08:19:03;;;;;;;6.60;2.70;;;19.30;99.90;;;;;;5052592;28;20470;-72
2022/06/13 08:21:30;;;;;;;5.83;2.67;;;19.30;99.90;;;;;;5052319;28;20478;-72
2022/06/13 08:23:58;;;;;;;4.63;2.73;;;19.30;99.90;;;;;;5052790;28;21005;-72
2022/06/13 08:26:25;;;;;;;3.80;2.93;;;19.30;99.90;;;;;;5052691;28;21108;-72
2022/06/13 08:28:53;;;;;;;4.07;2.67;;;19.40;99.90;;;;;;5051707;28;20813;-72
2022/06/13 08:31:22;;;;;;;5.03;3.07;;;19.50;99.90;;;;;;5052387;28;20463;-71
2022/06/13 08:33:49;;;;;;;4.43;2.87;;;19.60;99.90;;;;;;5052568;28;20495;-74
2022/06/13 08:36:16;;;;;;;7.53;2.80;;;19.60;99.90;;;;;;5052286;28;20486;-74
2022/06/13 08:38:43;;;;;;;5.50;3.13;;;19.70;99.90;;;;;;5052024;28;20463;-73
2022/06/13 08:41:21;;;;;;;6.00;2.87;;;19.80;99.90;;;;;;5052831;28;20470;-74
2022/06/13 08:44:23;;;;;;;10.20;4.23;;;19.90;99.90;;;;;;5052211;28;20678;-72
2022/06/13 08:47:02;;;;;;;8.83;2.93;;;20.00;99.90;;;;;;5052450;28;21016;-72
2022/06/13 08:49:37;;;;;;;3.10;2.67;;;20.20;99.90;;;;;;5052061;28;20455;-71
2022/06/13 08:52:21;;;;;;;5.00;3.23;;;20.40;99.90;;;;;;5052555;28;20466;-72
2022/06/13 08:54:55;;;;;;;5.00;2.73;;;20.40;99.90;;;;;;5052898;28;20813;-72
2022/06/13 08:57:27;;;;;;;4.23;3.13;;;20.20;99.90;;;;;;5052474;28;20487;-72
2022/06/13 09:00:03;;;;;;;5.47;3.00;;;20.20;99.90;;;;;;5051681;28;20969;-72
2022/06/13 09:02:37;;;;;;;7.63;3.07;;;20.40;99.90;;;;;;5052124;28;20465;-72
2022/06/13 09:05:09;;;;;;;5.53;4.10;;;20.80;99.90;;;;;;5052072;28;20550;-72
2022/06/13 09:07:42;;;;;;;7.43;3.30;;;21.00;99.90;;;;;;5051865;28;20487;-73
2022/06/13 09:10:15;;;;;;;5.37;2.80;;;21.10;99.90;;;;;;5051095;28;20467;-72
2022/06/13 09:12:48;;;;;;;4.13;2.90;;;21.20;99.90;;;;;;5051977;28;20466;-71
2022/06/13 09:15:19;;;;;;;4.17;2.63;;;21.50;99.90;;;;;;5051980;28;20973;-72
2022/06/13 09:17:52;;;;;;;6.10;3.07;;;21.50;99.90;;;;;;5052063;28;20974;-71
2022/06/13 09:20:23;;;;;;;4.57;2.97;;;21.40;99.90;;;;;;5051842;28;20459;-72
2022/06/13 09:22:57;;;;;;;10.93;3.50;;;21.40;99.90;;;;;;5051604;28;20519;-71
2022/06/13 09:25:33;;;;;;;4.03;2.80;;;21.40;99.90;;;;;;5051815;28;20470;-71
2022/06/13 09:28:06;;;;;;;5.33;3.07;;;21.60;99.90;;;;;;5051099;28;20852;-71
2022/06/13 09:30:36;;;;;;;5.17;3.30;;;21.80;99.90;;;;;;5051579;28;20510;-72
2022/06/13 09:33:09;;;;;;;5.43;2.93;;;22.10;99.90;;;;;;5051844;28;20464;-71
2022/06/13 09:35:40;;;;;;;4.90;2.83;;;22.10;99.90;;;;;;5051203;28;20732;-72
2022/06/13 09:38:13;;;;;;;5.23;3.40;;;21.80;99.90;;;;;;5050579;28;20459;-72
2022/06/13 09:40:50;;;;;;;6.00;3.07;;;21.70;99.90;;;;;;5051191;28;20474;-72
2022/06/13 09:43:28;;;;;;;6.10;3.70;;;21.90;99.90;;;;;;5051119;28;20463;-72
2022/06/13 09:46:06;;;;;;;5.40;2.87;;;22.10;99.90;;;;;;5051466;28;20835;-73
2022/06/13 09:48:45;;;;;;;3.10;2.30;;;22.20;99.40;;;;;;5050550;28;20486;-73
2022/06/13 09:51:23;;;;;;;6.03;2.20;;;22.30;99.90;;;;;;5051162;28;20811;-72
2022/06/13 09:54:01;;;;;;;4.20;2.20;;;22.40;98.20;;;;;;5051239;28;20467;-72
2022/06/13 09:56:34;;;;;;;7.00;2.40;;;22.30;96.70;;;;;;5051154;28;21292;-72
2022/06/13 09:59:13;;;;;;;3.40;2.70;;;22.50;97.80;;;;;;5050539;28;20470;-72
2022/06/13 10:01:47;;;;;;;5.23;3.57;;;22.80;98.50;;;;;;5050918;28;20474;-72
2022/06/13 10:04:21;;;;;;;5.07;2.67;;;23.00;98.60;;;;;;5051234;28;20735;-72
2022/06/13 10:06:54;;;;;;;4.90;2.20;;;23.40;98.10;;;;;;5050663;28;20490;-72
2022/06/13 10:09:31;;;;;;;3.80;2.70;;;23.60;98.90;;;;;;5050004;28;20459;-72
2022/06/13 10:12:06;;;;;;;4.77;2.40;;;23.70;98.30;;;;;;5051062;28;20470;-72
2022/06/13 10:14:48;;;;;;;6.23;3.33;;;23.50;96.40;;;;;;5050788;28;20466;-72
2022/06/13 10:17:37;;;;;;;4.27;2.77;;;23.40;99.00;;;;;;5050902;28;20482;-72
2022/06/13 10:20:15;;;;;;;4.07;2.17;;;23.30;96.80;;;;;;5050455;28;20455;-72
2022/06/13 10:22:51;;;;;;;4.33;2.33;;;23.40;99.20;;;;;;5050324;28;20566;-72
2022/06/13 10:25:35;;;;;;;5.73;2.50;;;23.40;97.80;;;;;;5050728;28;20463;-72
2022/06/13 10:28:16;;;;;;;2.93;2.03;;;23.40;96.70;;;;;;5049809;28;20527;-72
2022/06/13 10:30:53;;;;;;;3.47;2.33;;;23.40;95.50;;;;;;5050356;28;20460;-72
2022/06/13 10:33:33;;;;;;;3.20;2.47;;;23.50;96.60;;;;;;5050385;28;20463;-72
2022/06/13 10:36:10;;;;;;;4.97;2.23;;;23.60;96.40;;;;;;5050158;28;20459;-72
2022/06/13 10:38:48;;;;;;;2.60;2.30;;;23.80;96.40;;;;;;5049636;28;20454;-72
2022/06/13 10:41:15;;;;;;;4.07;2.00;;;23.90;95.30;;;;;;5049925;28;20465;-72
2022/06/13 10:43:42;;;;;;;2.63;1.70;;;24.00;97.00;;;;;;5049814;28;20466;-72
2022/06/13 10:46:11;;;;;;;3.77;2.10;;;24.00;96.30;;;;;;5050157;28;20490;-72
2022/06/13 10:48:44;;;;;;;4.40;2.27;;;24.10;96.10;;;;;;5049791;28;20494;-73
2022/06/13 10:51:10;;;;;;;3.97;2.73;;;24.10;96.70;;;;;;5050102;28;20468;-72
2022/06/13 10:53:43;;;;;;;3.23;2.10;;;24.10;96.30;;;;;;5050120;28;20854;-73
2022/06/13 10:56:13;;;;;;;2.60;2.10;;;23.90;92.90;;;;;;5050228;28;21203;-73
2022/06/13 10:58:46;;;;;;;2.80;2.40;;;23.60;94.20;;;;;;5049343;28;20838;-73
2022/06/13 11:01:15;;;;;;;3.73;2.20;;;23.60;96.40;;;;;;5050354;28;20495;-72
2022/06/13 11:03:57;;;;;;;3.40;2.00;;;23.60;94.80;;;;;;5049739;28;20468;-72
2022/06/13 11:06:33;;;;;;;3.80;2.03;;;23.70;93.80;;;;;;5049365;28;20487;-72
2022/06/13 11:09:02;;;;;;;3.83;2.40;;;24.00;94.70;;;;;;5047493;28;20510;-71
2022/06/13 11:11:32;;;;;;;5.70;2.40;;;24.10;93.20;;;;;;5049401;28;20969;-72
2022/06/13 11:13:59;;;;;;;2.53;1.80;;;24.00;93.90;;;;;;5046467;28;20463;-72
2022/06/13 11:22:38;;;;;;;2.70;2.07;;;24.50;96.00;;;;;;5087632;22;20491;-92
2022/06/13 11:25:17;;;;;;;2.63;2.40;;;24.60;93.90;;;;;;5092537;28;20503;-92
2022/06/13 11:28:22;;;;;;;;;;;;;;;;;;;;;
2022/06/13 11:31:18;;;;;;;4.37;2.40;;;24.80;93.20;;;;;;5093079;28;20453;-92
2022/06/13 11:37:22;;;;;;;3.33;2.20;;;24.80;93.10;;;;;;5089388;28;20450;-93
2022/06/13 11:40:06;;;;;;;;;;;;;;;;;;;;;
2022/06/13 11:46:06;;;;;;;4.80;2.70;;;25.40;94.40;;;;;;5086254;28;20518;-92
2022/06/13 11:49:18;;;;;;;2.87;1.70;;;25.60;94.20;;;;;;5092371;28;20458;-92
2022/06/13 11:51:59;;;;;;;2.10;1.83;;;25.80;91.90;;;;;;5087676;28;20831;-93
2022/06/13 11:57:22;;;;;;;2.93;1.67;;;26.10;90.00;;;;;;5090352;28;20466;-94
2022/06/13 11:59:53;;;;;;;2.90;2.23;;;26.30;92.10;;;;;;5092103;28;20470;-93
2022/06/13 12:02:22;;;;;;;4.53;2.43;;;26.00;91.30;;;;;;5084525;28;20488;-93
2022/06/13 12:04:49;;;;;;;4.17;2.50;;;26.10;93.90;;;;;;5071721;28;20508;-93
2022/06/13 12:07:24;;;;;;;5.50;2.27;;;26.20;92.70;;;;;;5077838;28;20462;-92
2022/06/13 12:09:58;;;;;;;3.83;2.57;;;26.00;92.70;;;;;;5072990;28;20564;-93
2022/06/13 12:12:27;;;;;;;4.53;1.93;;;25.40;91.00;;;;;;5072011;28;20565;-92
2022/06/13 12:15:00;;;;;;;3.67;2.33;;;25.00;91.50;;;;;;5072044;28;20577;-93
2022/06/13 12:17:38;;;;;;;3.33;1.90;;;24.60;91.20;;;;;;5071902;28;20557;-92
2022/06/13 12:20:11;;;;;;;3.23;1.97;;;24.60;90.60;;;;;;5072176;28;20560;-93
2022/06/13 12:22:46;;;;;;;3.07;2.73;;;24.90;89.90;;;;;;5072246;28;20496;-92
2022/06/13 12:25:16;;;;;;;3.43;1.93;;;25.10;87.30;;;;;;5072020;28;20552;-92
2022/06/13 12:27:53;;;;;;;2.20;1.67;;;25.20;91.80;;;;;;5072273;28;20493;-92
2022/06/13 12:30:32;;;;;;;4.73;2.13;;;25.40;91.20;;;;;;5071791;28;20967;-93
2022/06/13 12:33:07;;;;;;;4.00;1.80;;;25.60;90.40;;;;;;5071780;28;20991;-93
2022/06/13 12:35:43;;;;;;;3.10;2.07;;;25.70;90.70;;;;;;5071574;28;20450;-94
2022/06/13 12:38:20;;;;;;;2.60;2.20;;;25.90;89.90;;;;;;5071270;28;21023;-93
2022/06/13 12:41:01;;;;;;;3.40;2.10;;;25.90;90.10;;;;;;5071397;28;20466;-93
2022/06/13 12:43:47;;;;;;;3.77;1.93;;;26.00;90.40;;;;;;5071898;28;20998;-93
2022/06/13 12:46:50;;;;;;;3.93;2.10;;;26.20;87.40;;;;;;5074598;28;20468;-93
2022/06/13 12:50:17;;;;;;;4.87;2.10;;;26.30;88.80;;;;;;5075949;28;20459;-93
2022/06/13 12:53:03;;;;;;;4.57;1.80;;;26.40;88.60;;;;;;5075388;28;20487;-93
2022/06/13 12:55:40;;;;;;;2.70;1.90;;;26.50;86.30;;;;;;5075496;28;20670;-93
2022/06/13 12:58:23;;;;;;;4.43;2.07;;;26.30;86.40;;;;;;5074311;28;20514;-93
2022/06/13 13:00:54;;;;;;;4.43;2.30;;;26.30;88.70;;;;;;5074863;28;20458;-92
2022/06/13 13:03:50;;;;;;;2.37;2.17;;;26.30;90.70;;;;;;5075780;28;20449;-93
2022/06/13 13:06:29;;;;;;;3.30;2.07;;;26.40;90.10;;;;;;5068575;28;20463;-93
2022/06/13 13:09:09;;;;;;;3.57;2.23;;;26.20;90.00;;;;;;5074623;28;20489;-93
2022/06/13 13:11:50;;;;;;;2.43;2.20;;;25.50;87.60;;;;;;5074423;28;20845;-93
2022/06/13 13:14:27;;;;;;;4.93;2.77;;;25.10;90.30;;;;;;5074658;28;20531;-92
2022/06/13 13:17:02;;;;;;;5.83;2.40;;;24.70;91.30;;;;;;5074534;28;20521;-93
2022/06/13 13:19:45;;;;;;;2.00;1.80;;;24.90;90.60;;;;;;5074477;28;20489;-92
2022/06/13 13:22:21;;;;;;;3.70;1.83;;;25.20;91.20;;;;;;5073906;28;20486;-93
2022/06/13 13:25:08;;;;;;;2.40;1.97;;;25.50;90.70;;;;;;5074956;28;20816;-93
2022/06/13 13:27:42;;;;;;;2.40;1.80;;;25.80;84.30;;;;;;5074777;28;20446;-92
2022/06/13 13:30:19;;;;;;;2.43;1.83;;;26.00;90.80;;;;;;5074683;28;20458;-92
2022/06/13 13:33:16;;;;;;;2.20;1.57;;;26.10;82.90;;;;;;5074654;28;20575;-93
2022/06/13 13:35:48;;;;;;;2.80;1.70;;;26.10;87.30;;;;;;5076059;28;21028;-93
2022/06/13 13:41:03;;;;;;;2.23;1.77;;;25.60;87.40;;;;;;5088456;28;20457;-70
2022/06/13 13:43:34;;;;;;;4.50;1.80;;;25.30;86.70;;;;;;5091728;28;20820;-70
2022/06/13 13:46:09;;;;;;;3.10;1.60;;;25.20;86.70;;;;;;5090948;28;20461;-69
2022/06/13 13:48:41;;;;;;;5.03;2.00;;;25.40;90.00;;;;;;5091052;28;20453;-71
2022/06/13 13:51:12;;;;;;;2.40;1.80;;;25.60;89.90;;;;;;5091278;28;20469;-70